sensor_id;sensor_type;location;lat;lon;timestamp;pressure;altitude;pressure_sealevel;temperature;humidity
60373;BME280;46216;52.220;5.134;2023-03-15T00:01:50;101299.09;;;2.51;100.00
60373;BME280;46216;52.220;5.134;2023-03-15T00:04:16;101306.94;;;2.52;100.00
60373;BME280;46216;52.220;5.134;2023-03-15T00:06:41;101307.03;;;2.49;100.00
60373;BME280;46216;52.220;5.134;2023-03-15T00:09:07;101312.34;;;2.48;100.00
60373;BME280;46216;52.220;5.134;2023-03-15T00:11:32;101318.47;;;2.48;100.00
60373;BME280;46216;52.220;5.134;2023-03-15T00:13:58;101332.41;;;2.52;100.00
60373;BME280;46216;52.220;5.134;2023-03-15T00:16:24;101323.59;;;2.53;100.00
60373;BME280;46216;52.220;5.134;2023-03-15T00:18:52;101334.78;;;2.59;100.00
60373;BME280;46216;52.220;5.134;2023-03-15T00:21:18;101314.59;;;2.60;100.00
60373;BME280;46216;52.220;5.134;2023-03-15T00:23:43;101316.25;;;2.63;100.00
60373;BME280;46216;52.220;5.134;2023-03-15T00:26:08;101327.59;;;2.65;100.00
60373;BME280;46216;52.220;5.134;2023-03-15T00:28:34;101330.19;;;2.66;100.00
60373;BME280;46216;52.220;5.134;2023-03-15T00:33:28;101335.53;;;2.63;100.00
60373;BME280;46216;52.220;5.134;2023-03-15T00:35:54;101341.72;;;2.62;100.00
60373;BME280;46216;52.220;5.134;2023-03-15T00:38:19;101337.25;;;2.64;100.00
60373;BME280;46216;52.220;5.134;2023-03-15T00:40:45;101328.34;;;2.68;100.00
60373;BME280;46216;52.220;5.134;2023-03-15T00:43:11;101333.59;;;2.68;100.00
60373;BME280;46216;52.220;5.134;2023-03-15T00:45:41;101338.88;;;2.68;100.00
60373;BME280;46216;52.220;5.134;2023-03-15T00:48:09;101342.94;;;2.78;100.00
60373;BME280;46216;52.220;5.134;2023-03-15T00:50:34;101347.16;;;2.84;100.00
60373;BME280;46216;52.220;5.134;2023-03-15T00:52:59;101334.94;;;2.81;100.00
60373;BME280;46216;52.220;5.134;2023-03-15T00:55:25;101347.06;;;2.87;100.00
60373;BME280;46216;52.220;5.134;2023-03-15T00:57:51;101350.44;;;2.91;100.00
60373;BME280;46216;52.220;5.134;2023-03-15T01:00:21;101359.25;;;2.90;100.00
60373;BME280;46216;52.220;5.134;2023-03-15T01:02:52;101367.06;;;2.93;100.00
60373;BME280;46216;52.220;5.134;2023-03-15T01:05:17;101370.59;;;2.92;100.00
60373;BME280;46216;52.220;5.134;2023-03-15T01:07:43;101378.56;;;2.89;100.00
60373;BME280;46216;52.220;5.134;2023-03-15T01:10:13;101376.75;;;2.91;100.00
60373;BME280;46216;52.220;5.134;2023-03-15T01:12:38;101372.44;;;2.88;100.00
60373;BME280;46216;52.220;5.134;2023-03-15T01:15:06;101387.34;;;2.89;100.00
60373;BME280;46216;52.220;5.134;2023-03-15T01:17:32;101383.84;;;2.89;100.00
60373;BME280;46216;52.220;5.134;2023-03-15T01:19:58;101383.19;;;2.82;100.00
60373;BME280;46216;52.220;5.134;2023-03-15T01:22:24;101382.47;;;2.77;100.00
60373;BME280;46216;52.220;5.134;2023-03-15T01:24:49;101383.28;;;2.79;100.00
60373;BME280;46216;52.220;5.134;2023-03-15T01:27:14;101385.03;;;2.78;100.00
60373;BME280;46216;52.220;5.134;2023-03-15T01:29:40;101392.16;;;2.76;100.00
60373;BME280;46216;52.220;5.134;2023-03-15T01:32:05;101388.66;;;2.76;100.00
60373;BME280;46216;52.220;5.134;2023-03-15T01:34:31;101397.34;;;2.78;100.00
60373;BME280;46216;52.220;5.134;2023-03-15T01:36:56;101395.63;;;2.77;100.00
60373;BME280;46216;52.220;5.134;2023-03-15T01:39:21;101404.34;;;2.79;100.00
60373;BME280;46216;52.220;5.134;2023-03-15T01:41:47;101410.38;;;2.82;100.00
60373;BME280;46216;52.220;5.134;2023-03-15T01:44:13;101416.31;;;2.89;100.00
60373;BME280;46216;52.220;5.134;2023-03-15T01:46:39;101417.97;;;2.92;100.00
60373;BME280;46216;52.220;5.134;2023-03-15T01:54:33;101423.13;;;2.95;100.00
60373;BME280;46216;52.220;5.134;2023-03-15T01:57:09;101417.00;;;2.96;100.00
60373;BME280;46216;52.220;5.134;2023-03-15T01:59:38;101425.69;;;2.98;100.00
60373;BME280;46216;52.220;5.134;2023-03-15T02:02:05;101425.59;;;3.01;100.00
60373;BME280;46216;52.220;5.134;2023-03-15T02:04:44;101427.28;;;3.02;100.00
60373;BME280;46216;52.220;5.134;2023-03-15T02:07:13;101427.19;;;3.05;100.00
60373;BME280;46216;52.220;5.134;2023-03-15T02:10:07;101425.44;;;3.05;100.00
60373;BME280;46216;52.220;5.134;2023-03-15T02:12:41;101439.66;;;3.00;100.00
60373;BME280;46216;52.220;5.134;2023-03-15T02:15:09;101434.34;;;3.01;100.00
60373;BME280;46216;52.220;5.134;2023-03-15T02:17:38;101442.31;;;3.00;100.00
60373;BME280;46216;52.220;5.134;2023-03-15T02:28:00;101465.06;;;3.01;100.00
60373;BME280;46216;52.220;5.134;2023-03-15T02:30:25;101464.16;;;3.02;100.00
60373;BME280;46216;52.220;5.134;2023-03-15T02:32:51;101459.88;;;2.99;100.00
60373;BME280;46216;52.220;5.134;2023-03-15T02:35:25;101471.19;;;3.01;100.00
60373;BME280;46216;52.220;5.134;2023-03-15T02:37:50;101471.34;;;2.97;100.00
60373;BME280;46216;52.220;5.134;2023-03-15T02:40:21;101477.66;;;2.91;100.00
60373;BME280;46216;52.220;5.134;2023-03-15T02:42:49;101481.91;;;2.95;100.00
60373;BME280;46216;52.220;5.134;2023-03-15T02:45:16;101482.06;;;2.91;100.00
60373;BME280;46216;52.220;5.134;2023-03-15T02:47:42;101487.34;;;2.91;100.00
60373;BME280;46216;52.220;5.134;2023-03-15T02:50:09;101493.59;;;2.87;100.00
60373;BME280;46216;52.220;5.134;2023-03-15T02:52:34;101492.88;;;2.81;100.00
60373;BME280;46216;52.220;5.134;2023-03-15T02:55:00;101492.00;;;2.81;100.00
60373;BME280;46216;52.220;5.134;2023-03-15T02:57:27;101497.34;;;2.79;100.00
60373;BME280;46216;52.220;5.134;2023-03-15T02:59:52;101501.78;;;2.77;100.00
60373;BME280;46216;52.220;5.134;2023-03-15T03:02:20;101507.94;;;2.76;100.00
60373;BME280;46216;52.220;5.134;2023-03-15T03:04:45;101512.53;;;2.70;100.00
60373;BME280;46216;52.220;5.134;2023-03-15T03:07:11;101522.13;;;2.71;100.00
60373;BME280;46216;52.220;5.134;2023-03-15T03:09:37;101516.94;;;2.69;100.00
60373;BME280;46216;52.220;5.134;2023-03-15T03:12:03;101524.00;;;2.67;100.00
60373;BME280;46216;52.220;5.134;2023-03-15T03:14:28;101524.94;;;2.65;100.00
60373;BME280;46216;52.220;5.134;2023-03-15T03:16:53;101526.03;;;2.57;100.00
60373;BME280;46216;52.220;5.134;2023-03-15T03:19:19;101537.47;;;2.56;100.00
60373;BME280;46216;52.220;5.134;2023-03-15T03:21:50;101541.88;;;2.56;100.00
60373;BME280;46216;52.220;5.134;2023-03-15T03:24:17;101543.81;;;2.49;100.00
60373;BME280;46216;52.220;5.134;2023-03-15T03:26:43;101548.22;;;2.49;100.00
60373;BME280;46216;52.220;5.134;2023-03-15T03:29:10;101551.84;;;2.45;100.00
60373;BME280;46216;52.220;5.134;2023-03-15T03:31:35;101558.03;;;2.42;100.00
60373;BME280;46216;52.220;5.134;2023-03-15T03:34:03;101569.50;;;2.40;100.00
60373;BME280;46216;52.220;5.134;2023-03-15T03:36:29;101568.66;;;2.39;100.00
60373;BME280;46216;52.220;5.134;2023-03-15T03:38:54;101572.22;;;2.36;100.00
60373;BME280;46216;52.220;5.134;2023-03-15T03:41:21;101573.22;;;2.32;100.00
60373;BME280;46216;52.220;5.134;2023-03-15T03:43:46;101579.41;;;2.30;100.00
60373;BME280;46216;52.220;5.134;2023-03-15T03:46:11;101583.81;;;2.29;100.00
60373;BME280;46216;52.220;5.134;2023-03-15T03:48:37;101585.59;;;2.27;100.00
60373;BME280;46216;52.220;5.134;2023-03-15T03:51:02;101590.00;;;2.27;100.00
60373;BME280;46216;52.220;5.134;2023-03-15T03:53:28;101592.72;;;2.24;100.00
60373;BME280;46216;52.220;5.134;2023-03-15T03:55:53;101591.91;;;2.22;100.00
60373;BME280;46216;52.220;5.134;2023-03-15T03:58:19;101588.50;;;2.17;100.00
60373;BME280;46216;52.220;5.134;2023-03-15T04:00:45;101585.94;;;2.15;100.00
60373;BME280;46216;52.220;5.134;2023-03-15T04:03:10;101603.44;;;2.16;100.00
60373;BME280;46216;52.220;5.134;2023-03-15T04:05:35;101604.41;;;2.12;100.00
60373;BME280;46216;52.220;5.134;2023-03-15T04:08:01;101607.13;;;2.09;100.00
60373;BME280;46216;52.220;5.134;2023-03-15T04:10:26;101615.06;;;2.07;100.00
60373;BME280;46216;52.220;5.134;2023-03-15T04:12:53;101613.38;;;2.05;100.00
60373;BME280;46216;52.220;5.134;2023-03-15T04:15:19;101619.53;;;2.04;100.00
60373;BME280;46216;52.220;5.134;2023-03-15T04:17:47;101625.66;;;2.03;100.00
60373;BME280;46216;52.220;5.134;2023-03-15T04:20:13;101631.84;;;2.00;100.00
60373;BME280;46216;52.220;5.134;2023-03-15T04:22:42;101630.13;;;2.01;100.00
60373;BME280;46216;52.220;5.134;2023-03-15T04:25:14;101644.16;;;2.00;100.00
60373;BME280;46216;52.220;5.134;2023-03-15T04:27:40;101634.53;;;1.99;100.00
60373;BME280;46216;52.220;5.134;2023-03-15T04:30:05;101633.69;;;1.97;100.00
60373;BME280;46216;52.220;5.134;2023-03-15T04:32:31;101643.28;;;1.99;100.00
60373;BME280;46216;52.220;5.134;2023-03-15T04:34:56;101641.53;;;2.00;100.00
60373;BME280;46216;52.220;5.134;2023-03-15T04:37:22;101644.06;;;2.03;100.00
60373;BME280;46216;52.220;5.134;2023-03-15T04:39:47;101649.25;;;2.07;100.00
60373;BME280;46216;52.220;5.134;2023-03-15T04:42:12;101651.78;;;2.10;100.00
60373;BME280;46216;52.220;5.134;2023-03-15T04:44:38;101664.91;;;2.12;100.00
60373;BME280;46216;52.220;5.134;2023-03-15T04:47:03;101660.50;;;2.12;100.00
60373;BME280;46216;52.220;5.134;2023-03-15T04:49:28;101660.47;;;2.14;100.00
60373;BME280;46216;52.220;5.134;2023-03-15T04:51:54;101660.41;;;2.16;100.00
60373;BME280;46216;52.220;5.134;2023-03-15T04:54:19;101671.72;;;2.19;100.00
60373;BME280;46216;52.220;5.134;2023-03-15T04:56:44;101678.75;;;2.19;100.00
60373;BME280;46216;52.220;5.134;2023-03-15T04:59:10;101679.75;;;2.15;100.00
60373;BME280;46216;52.220;5.134;2023-03-15T05:01:35;101695.59;;;2.10;100.00
60373;BME280;46216;52.220;5.134;2023-03-15T05:04:01;101700.19;;;2.02;100.00
60373;BME280;46216;52.220;5.134;2023-03-15T05:06:26;101703.94;;;1.92;100.00
60373;BME280;46216;52.220;5.134;2023-03-15T05:08:52;101710.22;;;1.84;100.00
60373;BME280;46216;52.220;5.134;2023-03-15T05:11:18;101716.47;;;1.80;100.00
60373;BME280;46216;52.220;5.134;2023-03-15T05:13:44;101724.22;;;1.85;100.00
60373;BME280;46216;52.220;5.134;2023-03-15T05:16:09;101729.50;;;1.85;100.00
60373;BME280;46216;52.220;5.134;2023-03-15T05:18:34;101732.06;;;1.86;100.00
60373;BME280;46216;52.220;5.134;2023-03-15T05:21:00;101733.72;;;1.92;100.00
60373;BME280;46216;52.220;5.134;2023-03-15T05:23:25;101731.19;;;1.87;100.00
60373;BME280;46216;52.220;5.134;2023-03-15T05:25:52;101748.50;;;1.96;100.00
60373;BME280;46216;52.220;5.134;2023-03-15T05:28:21;101750.25;;;1.97;100.00
60373;BME280;46216;52.220;5.134;2023-03-15T05:30:48;101757.97;;;2.05;100.00
60373;BME280;46216;52.220;5.134;2023-03-15T05:33:13;101750.88;;;2.07;100.00
60373;BME280;46216;52.220;5.134;2023-03-15T05:35:38;101760.34;;;2.16;100.00
60373;BME280;46216;52.220;5.134;2023-03-15T05:38:04;101754.16;;;2.18;100.00
60373;BME280;46216;52.220;5.134;2023-03-15T05:40:30;101760.22;;;2.20;100.00
60373;BME280;46216;52.220;5.134;2023-03-15T05:42:57;101761.28;;;2.13;100.00
60373;BME280;46216;52.220;5.134;2023-03-15T05:45:22;101750.81;;;2.10;100.00
60373;BME280;46216;52.220;5.134;2023-03-15T05:47:48;101759.50;;;2.15;100.00
60373;BME280;46216;52.220;5.134;2023-03-15T05:50:13;101757.66;;;2.17;100.00
60373;BME280;46216;52.220;5.134;2023-03-15T05:52:38;101761.25;;;2.15;100.00
60373;BME280;46216;52.220;5.134;2023-03-15T05:55:04;101764.69;;;2.18;100.00
60373;BME280;46216;52.220;5.134;2023-03-15T05:57:29;101765.47;;;2.22;100.00
60373;BME280;46216;52.220;5.134;2023-03-15T05:59:55;101763.63;;;2.25;100.00
60373;BME280;46216;52.220;5.134;2023-03-15T06:02:20;101775.81;;;2.29;100.00
60373;BME280;46216;52.220;5.134;2023-03-15T06:04:46;101769.63;;;2.30;100.00
60373;BME280;46216;52.220;5.134;2023-03-15T06:07:11;101781.84;;;2.34;100.00
60373;BME280;46216;52.220;5.134;2023-03-15T06:09:37;101780.03;;;2.36;100.00
60373;BME280;46216;52.220;5.134;2023-03-15T06:12:02;101777.38;;;2.36;100.00
60373;BME280;46216;52.220;5.134;2023-03-15T06:14:28;101786.06;;;2.40;100.00
60373;BME280;46216;52.220;5.134;2023-03-15T06:16:54;101787.88;;;2.38;100.00
60373;BME280;46216;52.220;5.134;2023-03-15T06:19:20;101794.88;;;2.37;100.00
60373;BME280;46216;52.220;5.134;2023-03-15T06:21:46;101791.41;;;2.37;100.00
60373;BME280;46216;52.220;5.134;2023-03-15T06:24:12;101800.16;;;2.37;100.00
60373;BME280;46216;52.220;5.134;2023-03-15T06:26:37;101802.88;;;2.34;100.00
60373;BME280;46216;52.220;5.134;2023-03-15T06:29:03;101805.59;;;2.31;100.00
60373;BME280;46216;52.220;5.134;2023-03-15T06:31:28;101812.56;;;2.31;100.00
60373;BME280;46216;52.220;5.134;2023-03-15T06:33:53;101818.75;;;2.30;100.00
60373;BME280;46216;52.220;5.134;2023-03-15T06:36:18;101824.06;;;2.28;100.00
60373;BME280;46216;52.220;5.134;2023-03-15T06:38:44;101831.03;;;2.29;100.00
60373;BME280;46216;52.220;5.134;2023-03-15T06:41:09;101832.81;;;2.27;100.00
60373;BME280;46216;52.220;5.134;2023-03-15T06:43:40;101838.94;;;2.29;100.00
60373;BME280;46216;52.220;5.134;2023-03-15T06:46:06;101831.09;;;2.28;100.00
60373;BME280;46216;52.220;5.134;2023-03-15T06:48:31;101846.75;;;2.32;100.00
60373;BME280;46216;52.220;5.134;2023-03-15T06:50:57;101851.16;;;2.32;100.00
60373;BME280;46216;52.220;5.134;2023-03-15T06:53:22;101863.38;;;2.34;100.00
60373;BME280;46216;52.220;5.134;2023-03-15T06:55:48;101862.53;;;2.32;100.00
60373;BME280;46216;52.220;5.134;2023-03-15T06:58:15;101865.00;;;2.40;100.00
60373;BME280;46216;52.220;5.134;2023-03-15T07:00:40;101856.28;;;2.38;100.00
60373;BME280;46216;52.220;5.134;2023-03-15T07:03:06;101871.06;;;2.44;100.00
60373;BME280;46216;52.220;5.134;2023-03-15T07:05:31;101871.03;;;2.45;100.00
60373;BME280;46216;52.220;5.134;2023-03-15T07:07:57;101870.00;;;2.51;100.00
60373;BME280;46216;52.220;5.134;2023-03-15T07:10:22;101879.59;;;2.55;100.00
60373;BME280;46216;52.220;5.134;2023-03-15T07:12:48;101875.00;;;2.63;100.00
60373;BME280;46216;52.220;5.134;2023-03-15T07:15:13;101881.19;;;2.99;100.00
60373;BME280;46216;52.220;5.134;2023-03-15T07:17:39;101888.03;;;3.41;100.00
60373;BME280;46216;52.220;5.134;2023-03-15T07:20:05;101887.38;;;3.65;100.00
60373;BME280;46216;52.220;5.134;2023-03-15T07:22:31;101889.69;;;3.77;100.00
60373;BME280;46216;52.220;5.134;2023-03-15T07:24:57;101891.63;;;4.02;100.00
60373;BME280;46216;52.220;5.134;2023-03-15T07:27:22;101899.84;;;4.21;100.00
60373;BME280;46216;52.220;5.134;2023-03-15T07:29:47;101891.00;;;4.23;100.00
60373;BME280;46216;52.220;5.134;2023-03-15T07:32:13;101898.41;;;4.40;100.00
60373;BME280;46216;52.220;5.134;2023-03-15T07:34:38;101891.66;;;4.32;100.00
60373;BME280;46216;52.220;5.134;2023-03-15T07:37:04;101900.00;;;4.16;100.00
60373;BME280;46216;52.220;5.134;2023-03-15T07:39:29;101897.81;;;4.01;100.00
60373;BME280;46216;52.220;5.134;2023-03-15T07:41:57;101911.25;;;3.92;100.00
60373;BME280;46216;52.220;5.134;2023-03-15T07:44:23;101915.84;;;3.84;100.00
60373;BME280;46216;52.220;5.134;2023-03-15T07:46:48;101915.13;;;3.78;100.00
60373;BME280;46216;52.220;5.134;2023-03-15T07:49:14;101915.28;;;3.72;100.00
60373;BME280;46216;52.220;5.134;2023-03-15T07:51:39;101925.09;;;3.67;100.00
60373;BME280;46216;52.220;5.134;2023-03-15T07:54:06;101928.75;;;3.62;100.00
60373;BME280;46216;52.220;5.134;2023-03-15T07:56:31;101942.00;;;3.60;100.00
60373;BME280;46216;52.220;5.134;2023-03-15T07:58:57;101945.44;;;3.62;100.00
60373;BME280;46216;52.220;5.134;2023-03-15T08:01:22;101943.63;;;3.64;100.00
60373;BME280;46216;52.220;5.134;2023-03-15T08:03:47;101947.94;;;3.67;100.00
60373;BME280;46216;52.220;5.134;2023-03-15T08:06:12;101949.00;;;3.61;100.00
60373;BME280;46216;52.220;5.134;2023-03-15T08:08:38;101955.91;;;3.65;100.00
60373;BME280;46216;52.220;5.134;2023-03-15T08:11:05;101956.75;;;3.67;100.00
60373;BME280;46216;52.220;5.134;2023-03-15T08:13:30;101956.66;;;3.70;100.00
60373;BME280;46216;52.220;5.134;2023-03-15T08:15:55;101956.63;;;3.72;100.00
60373;BME280;46216;52.220;5.134;2023-03-15T08:18:21;101952.97;;;3.77;100.00
60373;BME280;46216;52.220;5.134;2023-03-15T08:20:46;101949.31;;;3.82;100.00
60373;BME280;46216;52.220;5.134;2023-03-15T08:23:11;101964.16;;;3.86;100.00
60373;BME280;46216;52.220;5.134;2023-03-15T08:25:41;101966.72;;;3.87;100.00
60373;BME280;46216;52.220;5.134;2023-03-15T08:28:06;101976.25;;;3.93;100.00
60373;BME280;46216;52.220;5.134;2023-03-15T08:30:32;101977.91;;;3.97;100.00
60373;BME280;46216;52.220;5.134;2023-03-15T08:32:57;101976.94;;;4.01;100.00
60373;BME280;46216;52.220;5.134;2023-03-15T08:35:23;101984.81;;;4.02;100.00
60373;BME280;46216;52.220;5.134;2023-03-15T08:37:49;101985.59;;;4.06;100.00
60373;BME280;46216;52.220;5.134;2023-03-15T08:40:18;101984.50;;;4.13;100.00
60373;BME280;46216;52.220;5.134;2023-03-15T08:42:50;101997.41;;;4.24;100.00
60373;BME280;46216;52.220;5.134;2023-03-15T08:45:19;102000.88;;;4.26;100.00
60373;BME280;46216;52.220;5.134;2023-03-15T08:47:45;101992.91;;;4.27;100.00
60373;BME280;46216;52.220;5.134;2023-03-15T08:50:12;101996.22;;;4.34;100.00
60373;BME280;46216;52.220;5.134;2023-03-15T08:52:39;101991.88;;;4.33;100.00
60373;BME280;46216;52.220;5.134;2023-03-15T08:55:05;101993.41;;;4.40;100.00
60373;BME280;46216;52.220;5.134;2023-03-15T08:57:31;101993.28;;;4.45;100.00
60373;BME280;46216;52.220;5.134;2023-03-15T09:00:02;101991.22;;;4.56;100.00
60373;BME280;46216;52.220;5.134;2023-03-15T09:02:32;101990.28;;;4.59;100.00
60373;BME280;46216;52.220;5.134;2023-03-15T09:04:58;101988.50;;;4.59;100.00
60373;BME280;46216;52.220;5.134;2023-03-15T09:07:23;101981.34;;;4.63;100.00
60373;BME280;46216;52.220;5.134;2023-03-15T09:09:48;101985.63;;;4.67;100.00
60373;BME280;46216;52.220;5.134;2023-03-15T09:12:15;101989.88;;;4.72;100.00
60373;BME280;46216;52.220;5.134;2023-03-15T09:14:40;101989.78;;;4.76;100.00
60373;BME280;46216;52.220;5.134;2023-03-15T09:17:06;101979.09;;;4.79;100.00
60373;BME280;46216;52.220;5.134;2023-03-15T09:19:31;101985.81;;;4.89;100.00
60373;BME280;46216;52.220;5.134;2023-03-15T09:21:56;101989.19;;;4.94;100.00
60373;BME280;46216;52.220;5.134;2023-03-15T09:24:22;101983.66;;;5.03;100.00
60373;BME280;46216;52.220;5.134;2023-03-15T09:26:47;101972.97;;;5.06;100.00
60373;BME280;46216;52.220;5.134;2023-03-15T09:29:12;101997.19;;;5.20;100.00
60373;BME280;46216;52.220;5.134;2023-03-15T09:31:38;101988.94;;;5.30;100.00
60373;BME280;46216;52.220;5.134;2023-03-15T09:34:04;101981.91;;;5.30;100.00
60373;BME280;46216;52.220;5.134;2023-03-15T09:36:30;101983.56;;;5.33;100.00
60373;BME280;46216;52.220;5.134;2023-03-15T09:38:56;101983.38;;;5.39;100.00
60373;BME280;46216;52.220;5.134;2023-03-15T09:41:42;101990.91;;;5.51;100.00
60373;BME280;46216;52.220;5.134;2023-03-15T09:47:22;101989.50;;;5.66;100.00
60373;BME280;46216;52.220;5.134;2023-03-15T09:49:52;101977.06;;;5.69;100.00
60373;BME280;46216;52.220;5.134;2023-03-15T09:55:14;101985.22;;;5.88;100.00
60373;BME280;46216;52.220;5.134;2023-03-15T09:57:47;101983.19;;;5.97;100.00
60373;BME280;46216;52.220;5.134;2023-03-15T10:00:19;101984.06;;;5.97;100.00
60373;BME280;46216;52.220;5.134;2023-03-15T10:02:55;101978.53;;;6.05;100.00
60373;BME280;46216;52.220;5.134;2023-03-15T10:05:46;101979.09;;;6.13;100.00
60373;BME280;46216;52.220;5.134;2023-03-15T10:08:17;101966.22;;;6.27;100.00
60373;BME280;46216;52.220;5.134;2023-03-15T10:10:49;101963.53;;;6.29;100.00
60373;BME280;46216;52.220;5.134;2023-03-15T10:13:34;101964.56;;;6.48;100.00
60373;BME280;46216;52.220;5.134;2023-03-15T10:16:36;101960.28;;;6.68;100.00
60373;BME280;46216;52.220;5.134;2023-03-15T10:19:07;101955.50;;;6.77;100.00
60373;BME280;46216;52.220;5.134;2023-03-15T10:22:03;101959.16;;;6.97;100.00
60373;BME280;46216;52.220;5.134;2023-03-15T10:24:36;101963.53;;;7.20;100.00
60373;BME280;46216;52.220;5.134;2023-03-15T10:27:15;101965.56;;;7.35;100.00
60373;BME280;46216;52.220;5.134;2023-03-15T10:29:43;101973.59;;;7.54;100.00
60373;BME280;46216;52.220;5.134;2023-03-15T10:32:15;101965.66;;;7.74;100.00
60373;BME280;46216;52.220;5.134;2023-03-15T10:34:44;101963.91;;;7.95;100.00
60373;BME280;46216;52.220;5.134;2023-03-15T10:37:11;101973.69;;;8.14;100.00
60373;BME280;46216;52.220;5.134;2023-03-15T10:39:36;101964.41;;;8.24;100.00
60373;BME280;46216;52.220;5.134;2023-03-15T10:42:02;101986.44;;;8.46;100.00
60373;BME280;46216;52.220;5.134;2023-03-15T10:44:28;101982.44;;;8.57;100.00
60373;BME280;46216;52.220;5.134;2023-03-15T10:47:06;101985.84;;;8.59;100.00
60373;BME280;46216;52.220;5.134;2023-03-15T10:49:37;101990.19;;;8.80;100.00
60373;BME280;46216;52.220;5.134;2023-03-15T10:52:03;101991.34;;;8.93;100.00
60373;BME280;46216;52.220;5.134;2023-03-15T10:54:32;101994.00;;;8.93;100.00
60373;BME280;46216;52.220;5.134;2023-03-15T10:57:11;101999.59;;;9.06;100.00
60373;BME280;46216;52.220;5.134;2023-03-15T10:59:53;101992.34;;;9.27;100.00
60373;BME280;46216;52.220;5.134;2023-03-15T11:02:21;102000.56;;;9.59;100.00
60373;BME280;46216;52.220;5.134;2023-03-15T11:05:16;101998.06;;;9.73;100.00
60373;BME280;46216;52.220;5.134;2023-03-15T11:07:59;102007.16;;;9.86;100.00
60373;BME280;46216;52.220;5.134;2023-03-15T11:10:27;102016.94;;;9.68;100.00
60373;BME280;46216;52.220;5.134;2023-03-15T11:13:17;102007.31;;;9.83;100.00
60373;BME280;46216;52.220;5.134;2023-03-15T11:16:18;102011.88;;;9.99;100.00
60373;BME280;46216;52.220;5.134;2023-03-15T11:18:59;102017.91;;;10.02;100.00
60373;BME280;46216;52.220;5.134;2023-03-15T11:21:29;102012.00;;;10.13;100.00
60373;BME280;46216;52.220;5.134;2023-03-15T11:23:59;102013.41;;;10.37;100.00
60373;BME280;46216;52.220;5.134;2023-03-15T11:26:26;102002.19;;;10.48;100.00
60373;BME280;46216;52.220;5.134;2023-03-15T11:29:19;101999.59;;;10.47;100.00
60373;BME280;46216;52.220;5.134;2023-03-15T11:31:46;102001.47;;;10.45;100.00
60373;BME280;46216;52.220;5.134;2023-03-15T11:36:44;102009.25;;;10.14;100.00
60373;BME280;46216;52.220;5.134;2023-03-15T11:39:13;102004.88;;;10.31;100.00
60373;BME280;46216;52.220;5.134;2023-03-15T11:41:51;102007.72;;;10.28;100.00
60373;BME280;46216;52.220;5.134;2023-03-15T11:47:19;101993.09;;;10.68;100.00
60373;BME280;46216;52.220;5.134;2023-03-15T11:49:51;101997.25;;;10.89;100.00
60373;BME280;46216;52.220;5.134;2023-03-15T11:52:20;101992.78;;;11.06;100.00
60373;BME280;46216;52.220;5.134;2023-03-15T11:54:46;101993.81;;;10.87;100.00
60373;BME280;46216;52.220;5.134;2023-03-15T11:57:35;101989.69;;;10.98;100.00
60373;BME280;46216;52.220;5.134;2023-03-15T12:02:59;101994.72;;;11.50;100.00
60373;BME280;46216;52.220;5.134;2023-03-15T12:10:45;101996.72;;;11.76;100.00
60373;BME280;46216;52.220;5.134;2023-03-15T12:13:28;101997.47;;;11.78;100.00
60373;BME280;46216;52.220;5.134;2023-03-15T12:15:54;102002.13;;;11.91;100.00
60373;BME280;46216;52.220;5.134;2023-03-15T12:18:25;102002.41;;;11.86;100.00
60373;BME280;46216;52.220;5.134;2023-03-15T12:21:16;102003.72;;;11.63;100.00
60373;BME280;46216;52.220;5.134;2023-03-15T12:23:45;102010.03;;;11.62;100.00
60373;BME280;46216;52.220;5.134;2023-03-15T12:29:04;101999.22;;;11.79;100.00
60373;BME280;46216;52.220;5.134;2023-03-15T12:31:45;102002.31;;;11.88;100.00
60373;BME280;46216;52.220;5.134;2023-03-15T12:34:22;102006.44;;;11.93;100.00
60373;BME280;46216;52.220;5.134;2023-03-15T12:36:52;101996.97;;;11.88;100.00
60373;BME280;46216;52.220;5.134;2023-03-15T12:39:42;102004.31;;;11.68;99.25
60373;BME280;46216;52.220;5.134;2023-03-15T12:53:20;102000.94;;;11.80;91.61
60373;BME280;46216;52.220;5.134;2023-03-15T12:55:48;102003.53;;;11.82;94.28
60373;BME280;46216;52.220;5.134;2023-03-15T12:58:16;102007.47;;;11.91;94.73
60373;BME280;46216;52.220;5.134;2023-03-15T13:00:43;102003.41;;;11.83;92.44
60373;BME280;46216;52.220;5.134;2023-03-15T13:03:14;101997.28;;;11.81;90.68
60373;BME280;46216;52.220;5.134;2023-03-15T13:16:11;101979.88;;;11.60;83.69
60373;BME280;46216;52.220;5.134;2023-03-15T13:18:51;101975.84;;;11.53;85.42
60373;BME280;46216;52.220;5.134;2023-03-15T13:23:57;101981.97;;;11.55;86.34
60373;BME280;46216;52.220;5.134;2023-03-15T13:26:49;101977.03;;;11.63;84.99
60373;BME280;46216;52.220;5.134;2023-03-15T13:29:30;101984.22;;;11.77;87.10
60373;BME280;46216;52.220;5.134;2023-03-15T13:32:15;101983.94;;;11.81;86.40
60373;BME280;46216;52.220;5.134;2023-03-15T13:34:44;101985.31;;;11.89;87.98
60373;BME280;46216;52.220;5.134;2023-03-15T13:37:19;101992.13;;;11.94;90.00
60373;BME280;46216;52.220;5.134;2023-03-15T13:39:58;101995.50;;;11.82;88.19
60373;BME280;46216;52.220;5.134;2023-03-15T13:42:24;101994.41;;;11.86;90.36
60373;BME280;46216;52.220;5.134;2023-03-15T13:47:29;101995.06;;;11.44;89.40
60373;BME280;46216;52.220;5.134;2023-03-15T13:49:55;101998.66;;;11.58;91.51
60373;BME280;46216;52.220;5.134;2023-03-15T13:52:21;101997.59;;;11.61;90.83
60373;BME280;46216;52.220;5.134;2023-03-15T13:54:47;101995.09;;;11.74;89.88
60373;BME280;46216;52.220;5.134;2023-03-15T13:57:17;101997.38;;;11.96;90.99
60373;BME280;46216;52.220;5.134;2023-03-15T13:59:46;101994.72;;;11.96;89.97
60373;BME280;46216;52.220;5.134;2023-03-15T14:02:29;102004.16;;;12.01;91.94